Accueil
METAR-TAF:

METAR-TAF

Aéroports :

Mönchengladbach, Allemagne

latitude: 51-13-49N, longitude: 006-30-16E, altitude: 38 m

Observation

Le bulletin a été fait il y a 35 minutes, à 06:20 UTC
Vent 2 kt de direction variable
Température 2°C
Humidité 80%
Pression 1023 hPa
Visibilité: 9000 m

METAR: EDLN 080620Z AUTO VRB02KT 9000 // OVC071/// 02/M01 Q1023

Heure: 07:55 (06:55 UTC)

Prévision

Le bulletin a été fait il y a 13 heures et 55 minutes, à 17:00 UTC
Prévision valable du 07 à 18 UTC au 08 à 03 UTC
Vent 3 kt de nord/nord-ouest
Visibilité 10 km ou plus
Nuages épars à une hauteur de 4000 ft

TAF: EDLN 071700Z 0718/0803 33003KT 9999 SCT040

Observations et prévisions météorologiques de plus de 4000 aéroports (messages METAR et TAF).

Les stations disponibles sont représentées par des disques jaunes et rouges sur la carte.

Passer la souris dessus pour voir le nom de la station.

Cliquer dessus pour voir les observations et prévisions météorologiques.

Pour changer de carte: cliquez sur les boutons verts avec une croix noire pour zoomer, sur le bouton vert avec un tiret pour effectuer un zoom arrière, ou sur les flèches vertes pour les cartes adjacentes.


METAR-TAF: